createdAt,value
2023-05-02T00:00:04.812Z,24.81
2023-05-02T00:01:04.917Z,24.81
2023-05-02T00:02:04.995Z,24.81
2023-05-02T00:03:05.050Z,24.81
2023-05-02T00:04:05.174Z,24.80
2023-05-02T00:05:05.102Z,24.80
2023-05-02T00:06:05.213Z,24.80
2023-05-02T00:07:05.238Z,24.80
2023-05-02T00:08:05.368Z,24.80
2023-05-02T00:09:05.351Z,24.79
2023-05-02T00:10:05.367Z,24.79
2023-05-02T00:11:05.500Z,24.80
2023-05-02T00:12:05.525Z,24.80
2023-05-02T00:13:05.562Z,24.79
2023-05-02T00:14:05.624Z,24.79
2023-05-02T00:15:05.664Z,24.79
2023-05-02T00:16:05.782Z,24.79
2023-05-02T00:17:05.838Z,24.79
2023-05-02T00:18:05.919Z,24.78
2023-05-02T00:19:05.901Z,24.79
2023-05-02T00:20:05.963Z,24.79
2023-05-02T00:21:08.554Z,24.78
2023-05-02T00:22:06.185Z,24.78
2023-05-02T00:23:06.241Z,24.78
2023-05-02T00:24:06.309Z,24.78
2023-05-02T00:25:06.392Z,24.78
2023-05-02T00:26:06.466Z,24.78
2023-05-02T00:27:06.487Z,24.78
2023-05-02T00:28:06.575Z,24.77
2023-05-02T00:29:07.123Z,24.78
2023-05-02T00:30:06.705Z,24.77
2023-05-02T00:31:06.749Z,24.77
2023-05-02T00:32:06.787Z,24.78
2023-05-02T00:33:06.841Z,24.77
2023-05-02T00:34:06.887Z,24.77
2023-05-02T00:35:06.982Z,24.77
2023-05-02T00:36:07.048Z,24.77
2023-05-02T00:37:07.094Z,24.77
2023-05-02T00:38:07.148Z,24.78
2023-05-02T00:39:07.238Z,24.76
2023-05-02T00:40:07.277Z,24.76
2023-05-02T00:41:07.330Z,24.77
2023-05-02T00:42:07.394Z,24.77
2023-05-02T00:43:07.474Z,24.76
2023-05-02T00:44:07.496Z,24.77
2023-05-02T00:45:07.650Z,24.76
2023-05-02T00:46:07.628Z,24.76
2023-05-02T00:47:07.737Z,24.76
2023-05-02T00:48:07.793Z,24.77
2023-05-02T00:49:07.808Z,24.76
2023-05-02T00:50:07.847Z,24.76
2023-05-02T00:51:07.932Z,24.76
2023-05-02T00:52:08.003Z,24.76
2023-05-02T00:53:08.067Z,24.76
2023-05-02T00:54:08.111Z,24.75
2023-05-02T00:55:08.160Z,24.76
2023-05-02T00:56:08.180Z,24.76
2023-05-02T00:57:08.212Z,24.75
2023-05-02T00:58:08.295Z,24.76
2023-05-02T00:59:08.347Z,24.75
2023-05-02T01:00:08.430Z,24.75
2023-05-02T01:01:08.506Z,24.75
2023-05-02T01:02:08.552Z,24.75
2023-05-02T01:03:08.671Z,24.76
2023-05-02T01:04:08.665Z,24.75
2023-05-02T01:05:08.694Z,24.75
2023-05-02T01:06:08.760Z,24.75
2023-05-02T01:07:08.783Z,24.75
2023-05-02T01:08:08.789Z,24.74
2023-05-02T01:09:08.829Z,24.75
2023-05-02T01:10:08.896Z,24.74
2023-05-02T01:11:08.932Z,24.75
2023-05-02T01:12:08.968Z,24.75
2023-05-02T01:13:09.055Z,24.74
2023-05-02T01:14:09.086Z,24.74
2023-05-02T01:15:09.197Z,24.74
2023-05-02T01:16:09.319Z,24.74
2023-05-02T01:17:09.240Z,24.74
2023-05-02T01:18:09.391Z,24.74
2023-05-02T01:19:09.354Z,24.74
2023-05-02T01:20:09.444Z,24.74
2023-05-02T01:21:09.515Z,24.74
2023-05-02T01:22:09.567Z,24.74
2023-05-02T01:23:09.611Z,24.73
2023-05-02T01:24:09.672Z,24.73
2023-05-02T01:25:09.717Z,24.73
2023-05-02T01:26:09.803Z,24.74
2023-05-02T01:27:09.839Z,24.74
2023-05-02T01:28:09.949Z,24.73
2023-05-02T01:29:09.982Z,24.73
2023-05-02T01:30:10.057Z,24.73
2023-05-02T01:31:10.103Z,24.72
2023-05-02T01:32:10.108Z,24.73
2023-05-02T01:33:10.279Z,24.73
2023-05-02T01:34:10.223Z,24.72
2023-05-02T01:35:10.219Z,24.73
2023-05-02T01:36:10.268Z,24.72
2023-05-02T01:37:10.331Z,24.73
2023-05-02T01:38:10.412Z,24.73
2023-05-02T01:39:10.403Z,24.73
2023-05-02T01:40:10.405Z,24.73
2023-05-02T01:41:10.405Z,24.72
2023-05-02T01:42:10.440Z,24.72
2023-05-02T01:43:10.459Z,24.72
2023-05-02T01:44:10.500Z,24.72
2023-05-02T01:45:10.513Z,24.72
2023-05-02T01:46:10.505Z,24.72
2023-05-02T01:47:10.638Z,24.72
2023-05-02T01:48:10.615Z,24.72
2023-05-02T01:49:10.565Z,24.71
2023-05-02T01:50:10.595Z,24.72
2023-05-02T01:51:10.641Z,24.72
2023-05-02T01:52:10.667Z,24.71
2023-05-02T01:53:10.690Z,24.72
2023-05-02T01:54:10.746Z,24.72
2023-05-02T01:55:10.780Z,24.72
2023-05-02T01:56:10.793Z,24.71
2023-05-02T01:57:10.826Z,24.71
2023-05-02T01:58:10.855Z,24.71
2023-05-02T01:59:10.945Z,24.71
2023-05-02T02:00:10.945Z,24.70
2023-05-02T02:01:10.999Z,24.70
2023-05-02T02:02:10.994Z,24.71
2023-05-02T02:03:11.074Z,24.71
2023-05-02T02:04:11.111Z,24.71
2023-05-02T02:05:11.119Z,24.71
2023-05-02T02:06:11.104Z,24.71
2023-05-02T02:07:11.143Z,24.71
2023-05-02T02:08:11.135Z,24.71
2023-05-02T02:09:11.217Z,24.71
2023-05-02T02:10:11.298Z,24.70
2023-05-02T02:11:11.265Z,24.70
2023-05-02T02:12:11.330Z,24.71
2023-05-02T02:13:11.313Z,24.70
2023-05-02T02:14:11.337Z,24.70
2023-05-02T02:15:11.357Z,24.70
2023-05-02T02:16:11.403Z,24.70
2023-05-02T02:18:12.079Z,24.66
2023-05-02T02:19:12.031Z,24.68
2023-05-02T02:20:12.107Z,24.68
2023-05-02T02:21:12.139Z,24.69
2023-05-02T02:22:12.211Z,24.69
2023-05-02T02:23:12.252Z,24.69
2023-05-02T02:24:12.277Z,24.69
2023-05-02T02:25:12.343Z,24.69
2023-05-02T02:26:12.269Z,24.70
2023-05-02T02:27:12.359Z,24.69
2023-05-02T02:28:12.343Z,24.70
2023-05-02T02:29:12.339Z,24.69
2023-05-02T02:30:12.378Z,24.69
2023-05-02T02:31:12.462Z,24.69
2023-05-02T02:32:12.406Z,24.69
2023-05-02T02:33:12.451Z,24.69
2023-05-02T02:34:12.449Z,24.69
2023-05-02T02:35:12.457Z,24.69
2023-05-02T02:36:12.451Z,24.69
2023-05-02T02:37:12.549Z,24.69
2023-05-02T02:38:12.508Z,24.69
2023-05-02T02:39:12.571Z,24.69
2023-05-02T02:40:12.628Z,24.69
2023-05-02T02:41:12.624Z,24.69
2023-05-02T02:42:12.722Z,24.69
2023-05-02T02:43:12.793Z,24.69
2023-05-02T02:44:13.677Z,24.68
2023-05-02T02:45:12.888Z,24.69
2023-05-02T02:46:12.963Z,24.69
2023-05-02T02:47:12.937Z,24.69
2023-05-02T02:48:13.032Z,24.69
2023-05-02T02:49:13.024Z,24.69
2023-05-02T02:50:13.029Z,24.69
2023-05-02T02:51:13.055Z,24.69
2023-05-02T02:52:13.108Z,24.69
2023-05-02T02:53:13.103Z,24.69
2023-05-02T02:54:25.758Z,24.69
2023-05-02T02:55:14.142Z,24.68
2023-05-02T02:56:13.131Z,24.68
2023-05-02T02:57:13.177Z,24.69
2023-05-02T02:58:13.131Z,24.69
2023-05-02T02:59:13.103Z,24.69
2023-05-02T03:00:13.109Z,24.69
2023-05-02T03:01:13.141Z,24.69
2023-05-02T03:02:13.077Z,24.69
2023-05-02T03:03:13.227Z,24.68
2023-05-02T03:04:13.140Z,24.68
2023-05-02T03:05:13.107Z,24.69
2023-05-02T03:06:13.152Z,24.68
2023-05-02T03:07:13.054Z,24.68
2023-05-02T03:08:13.084Z,24.69
2023-05-02T03:09:13.148Z,24.68
2023-05-02T03:10:13.156Z,24.68
2023-05-02T03:11:13.228Z,24.68
2023-05-02T03:12:13.221Z,24.68
2023-05-02T03:13:13.239Z,24.68
2023-05-02T03:14:13.307Z,24.68
2023-05-02T03:15:13.279Z,24.68
2023-05-02T03:16:13.386Z,24.68
2023-05-02T03:17:13.387Z,24.67
2023-05-02T03:18:13.427Z,24.67
2023-05-02T03:19:13.394Z,24.67
2023-05-02T03:20:13.456Z,24.67
2023-05-02T03:21:13.463Z,24.68
2023-05-02T03:22:13.485Z,24.67
2023-05-02T03:23:13.530Z,24.67
2023-05-02T03:24:13.547Z,24.68
2023-05-02T03:25:13.588Z,24.68
2023-05-02T03:26:13.585Z,24.68
2023-05-02T03:27:13.682Z,24.67
2023-05-02T03:28:13.685Z,24.68
2023-05-02T03:29:13.709Z,24.68
2023-05-02T03:30:13.728Z,24.68
2023-05-02T03:31:13.815Z,24.67
2023-05-02T03:32:13.773Z,24.68
2023-05-02T03:33:13.845Z,24.68
2023-05-02T03:34:13.811Z,24.68
2023-05-02T03:35:13.857Z,24.67
2023-05-02T03:36:13.864Z,24.67
2023-05-02T03:37:13.929Z,24.67
2023-05-02T03:38:13.899Z,24.67
2023-05-02T03:39:13.948Z,24.67
2023-05-02T03:40:13.989Z,24.68
2023-05-02T03:41:14.001Z,24.68
2023-05-02T03:42:13.998Z,24.68
2023-05-02T03:43:14.010Z,24.68
2023-05-02T03:44:14.018Z,24.68
2023-05-02T03:45:14.033Z,24.67
2023-05-02T03:46:14.106Z,24.67
2023-05-02T03:47:14.112Z,24.67
2023-05-02T03:48:14.090Z,24.67
2023-05-02T03:49:14.088Z,24.68
2023-05-02T03:50:14.064Z,24.67
2023-05-02T03:51:14.064Z,24.67
2023-05-02T03:52:14.043Z,24.67
2023-05-02T03:53:14.083Z,24.67
2023-05-02T03:54:14.086Z,24.66
2023-05-02T03:55:14.064Z,24.67
2023-05-02T03:56:14.062Z,24.67
2023-05-02T03:57:14.072Z,24.67
2023-05-02T03:58:14.053Z,24.67
2023-05-02T03:59:14.052Z,24.66
2023-05-02T04:00:14.034Z,24.67
2023-05-02T04:01:14.065Z,24.67
2023-05-02T04:02:14.140Z,24.68
2023-05-02T04:03:14.188Z,24.68
2023-05-02T04:04:14.168Z,24.69
2023-05-02T04:05:14.125Z,24.68
2023-05-02T04:06:14.218Z,24.68
2023-05-02T04:07:14.173Z,24.67
2023-05-02T04:08:14.236Z,24.65
2023-05-02T04:09:14.249Z,24.64
2023-05-02T04:10:14.266Z,24.62
2023-05-02T04:11:14.280Z,24.61
2023-05-02T04:12:14.315Z,24.59
2023-05-02T04:13:14.319Z,24.58
2023-05-02T04:14:14.322Z,24.56
2023-05-02T04:15:14.330Z,24.55
2023-05-02T04:16:14.367Z,24.53
2023-05-02T04:17:14.365Z,24.51
2023-05-02T04:18:14.627Z,24.49
2023-05-02T04:19:14.370Z,24.49
2023-05-02T04:20:14.357Z,24.49
2023-05-02T04:21:14.383Z,24.49
2023-05-02T04:22:14.365Z,24.48
2023-05-02T04:23:14.396Z,24.47
2023-05-02T04:24:14.412Z,24.46
2023-05-02T04:25:14.405Z,24.45
2023-05-02T04:26:14.411Z,24.45
2023-05-02T04:27:15.311Z,24.44
2023-05-02T04:28:14.384Z,24.44
2023-05-02T04:29:14.449Z,24.44
2023-05-02T04:30:14.389Z,24.43
2023-05-02T04:31:14.474Z,24.42
2023-05-02T04:32:14.401Z,24.41
2023-05-02T04:33:14.440Z,24.41
2023-05-02T04:34:14.427Z,24.41
2023-05-02T04:35:14.430Z,24.42
2023-05-02T04:36:14.445Z,24.44
2023-05-02T04:37:14.401Z,24.44
2023-05-02T04:38:14.416Z,24.45
2023-05-02T04:39:14.448Z,24.46
2023-05-02T04:40:14.448Z,24.48
2023-05-02T04:41:22.042Z,24.49
2023-05-02T04:42:14.470Z,24.50
2023-05-02T04:43:14.409Z,24.51
2023-05-02T04:44:14.409Z,24.52
2023-05-02T04:45:14.443Z,24.53
2023-05-02T04:46:14.462Z,24.54
2023-05-02T04:47:14.396Z,24.55
2023-05-02T04:48:14.492Z,24.55
2023-05-02T04:49:14.425Z,24.56
2023-05-02T04:50:14.512Z,24.57
2023-05-02T04:51:16.820Z,24.57
2023-05-02T04:52:14.361Z,24.58
2023-05-02T04:53:14.368Z,24.58
2023-05-02T04:54:14.354Z,24.59
2023-05-02T04:55:14.352Z,24.60
2023-05-02T04:56:14.320Z,24.61
2023-05-02T04:57:14.367Z,24.61
2023-05-02T04:58:14.358Z,24.62
2023-05-02T04:59:14.335Z,24.62
2023-05-02T05:00:14.284Z,24.63
2023-05-02T05:01:14.353Z,24.63
2023-05-02T05:02:14.401Z,24.63
2023-05-02T05:03:14.384Z,24.64
2023-05-02T05:04:14.474Z,24.64
2023-05-02T05:05:14.303Z,24.65
2023-05-02T05:06:14.266Z,24.65
2023-05-02T05:07:14.258Z,24.66
2023-05-02T05:08:14.232Z,24.67
2023-05-02T05:09:14.238Z,24.66
2023-05-02T05:10:14.245Z,24.66
2023-05-02T05:11:14.213Z,24.67
2023-05-02T05:12:14.273Z,24.67
2023-05-02T05:13:14.224Z,24.68
2023-05-02T05:14:14.215Z,24.68
2023-05-02T05:15:14.196Z,24.69
2023-05-02T05:16:14.218Z,24.69
2023-05-02T05:17:14.191Z,24.69
2023-05-02T05:18:14.244Z,24.70
2023-05-02T05:19:14.173Z,24.70
2023-05-02T05:20:14.169Z,24.71
2023-05-02T05:21:14.129Z,24.70
2023-05-02T05:22:14.155Z,24.70
2023-05-02T05:23:14.129Z,24.71
2023-05-02T05:24:14.146Z,24.71
2023-05-02T05:25:14.116Z,24.72
2023-05-02T05:26:14.132Z,24.72
2023-05-02T05:27:14.121Z,24.72
2023-05-02T05:28:14.112Z,24.73
2023-05-02T05:29:14.136Z,24.73
2023-05-02T05:30:14.072Z,24.73
2023-05-02T05:31:16.594Z,24.74
2023-05-02T05:32:14.333Z,24.74
2023-05-02T05:33:14.182Z,24.73
2023-05-02T05:34:14.207Z,24.74
2023-05-02T05:35:15.030Z,24.74
2023-05-02T05:36:14.052Z,24.77
2023-05-02T05:37:14.138Z,24.79
2023-05-02T05:38:14.062Z,24.83
2023-05-02T05:39:14.078Z,24.85
2023-05-02T05:40:14.054Z,24.86
2023-05-02T05:41:14.060Z,24.89
2023-05-02T05:42:14.046Z,24.91
2023-05-02T05:43:14.006Z,24.94
2023-05-02T05:44:14.021Z,24.96
2023-05-02T05:45:13.992Z,24.99
2023-05-02T05:46:13.978Z,25.00
2023-05-02T05:47:14.002Z,25.02
2023-05-02T05:48:14.082Z,25.02
2023-05-02T05:49:14.014Z,25.04
2023-05-02T05:50:14.022Z,25.05
2023-05-02T05:51:13.931Z,25.06
2023-05-02T05:52:13.957Z,25.08
2023-05-02T05:53:13.960Z,25.09
2023-05-02T05:54:14.055Z,25.10
2023-05-02T05:55:13.923Z,25.11
2023-05-02T05:56:13.976Z,25.13
2023-05-02T05:57:13.929Z,25.14
2023-05-02T05:58:13.909Z,25.14
2023-05-02T05:59:13.889Z,25.16
2023-05-02T06:00:13.913Z,25.17
2023-05-02T06:01:13.891Z,25.18
2023-05-02T06:02:13.917Z,25.20
2023-05-02T06:03:14.034Z,25.21
2023-05-02T06:04:14.154Z,25.23
2023-05-02T06:05:14.022Z,25.24
2023-05-02T06:06:13.937Z,25.25
2023-05-02T06:07:13.944Z,25.26
2023-05-02T06:08:13.997Z,25.27
2023-05-02T06:09:14.044Z,25.27
2023-05-02T06:10:14.096Z,25.28
2023-05-02T06:11:14.093Z,25.30
2023-05-02T06:12:14.100Z,25.31
2023-05-02T06:13:14.209Z,25.32
2023-05-02T06:14:14.226Z,25.33
2023-05-02T06:15:14.248Z,25.34
2023-05-02T06:16:14.445Z,25.34
2023-05-02T06:17:14.319Z,25.36
2023-05-02T06:18:14.502Z,25.37
2023-05-02T06:19:14.411Z,25.38
2023-05-02T06:20:15.266Z,25.39
2023-05-02T06:21:14.482Z,25.41
2023-05-02T06:22:14.537Z,25.41
2023-05-02T06:23:15.109Z,25.43
2023-05-02T06:24:14.588Z,25.43
2023-05-02T06:25:14.653Z,25.44
2023-05-02T06:26:14.681Z,25.45
2023-05-02T06:27:14.715Z,25.46
2023-05-02T06:28:14.723Z,25.47
2023-05-02T06:29:14.796Z,25.47
2023-05-02T06:30:14.737Z,25.49
2023-05-02T06:31:14.824Z,25.50
2023-05-02T06:32:14.861Z,25.51
2023-05-02T06:33:14.904Z,25.51
2023-05-02T06:34:14.920Z,25.52
2023-05-02T06:35:14.940Z,25.53
2023-05-02T06:36:14.926Z,25.54
2023-05-02T06:37:15.063Z,25.54
2023-05-02T06:38:15.081Z,25.51
2023-05-02T06:39:15.011Z,25.49
2023-05-02T06:40:15.063Z,25.42
2023-05-02T06:41:17.857Z,25.32
2023-05-02T06:42:15.546Z,25.23
2023-05-02T06:43:15.594Z,25.16
2023-05-02T06:44:15.079Z,25.14
2023-05-02T06:45:15.090Z,25.13
2023-05-02T06:46:15.294Z,25.13
2023-05-02T06:47:15.666Z,25.15
2023-05-02T06:48:15.101Z,25.17
2023-05-02T06:49:15.045Z,25.22
2023-05-02T06:50:15.077Z,25.24
2023-05-02T06:51:15.013Z,25.29
2023-05-02T06:52:15.036Z,25.33
2023-05-02T06:53:15.051Z,25.36
2023-05-02T06:54:15.108Z,25.40
2023-05-02T06:55:15.002Z,25.44
2023-05-02T06:56:15.040Z,25.47
2023-05-02T06:57:14.972Z,25.48
2023-05-02T06:58:15.003Z,25.51
2023-05-02T06:59:14.998Z,25.51
2023-05-02T07:00:14.986Z,25.54
2023-05-02T07:01:15.059Z,25.56
2023-05-02T07:02:15.008Z,25.58
2023-05-02T07:03:14.954Z,25.61
2023-05-02T07:04:14.998Z,25.63
2023-05-02T07:05:14.926Z,25.66
2023-05-02T07:06:14.974Z,25.67
2023-05-02T07:07:14.887Z,25.69
2023-05-02T07:08:14.896Z,25.71
2023-05-02T07:09:14.945Z,25.73
2023-05-02T07:10:15.094Z,25.76
2023-05-02T07:11:14.897Z,25.78
2023-05-02T07:12:14.895Z,25.80
2023-05-02T07:13:14.882Z,25.81
2023-05-02T07:14:15.120Z,25.83
2023-05-02T07:15:14.890Z,25.84
2023-05-02T07:16:15.114Z,25.86
2023-05-02T07:17:15.094Z,25.87
2023-05-02T07:18:15.172Z,25.89
2023-05-02T07:19:15.099Z,25.91
2023-05-02T07:20:14.903Z,25.92
2023-05-02T07:21:14.814Z,25.94
2023-05-02T07:22:14.831Z,25.95
2023-05-02T07:23:14.792Z,25.96
2023-05-02T07:24:15.094Z,25.97
2023-05-02T07:25:14.776Z,25.99
2023-05-02T07:26:14.849Z,26.00
2023-05-02T07:27:14.744Z,26.01
2023-05-02T07:28:15.129Z,26.02
2023-05-02T07:29:15.097Z,26.04
2023-05-02T07:30:15.096Z,26.06
2023-05-02T07:31:14.914Z,26.07
2023-05-02T07:32:14.812Z,26.09
2023-05-02T07:33:14.815Z,26.09
2023-05-02T07:34:14.703Z,26.09
2023-05-02T07:35:14.714Z,26.09
2023-05-02T07:36:14.716Z,26.04
2023-05-02T07:37:15.140Z,25.81
2023-05-02T07:38:14.687Z,25.69
2023-05-02T07:39:14.736Z,25.62
2023-05-02T07:40:14.711Z,25.56
2023-05-02T07:41:14.712Z,25.52
2023-05-02T07:42:15.117Z,25.47
2023-05-02T07:43:14.657Z,25.45
2023-05-02T07:44:14.726Z,25.44
2023-05-02T07:45:14.827Z,25.43
2023-05-02T07:46:15.003Z,25.43
2023-05-02T07:47:15.099Z,25.34
2023-05-02T07:48:15.016Z,25.31
2023-05-02T07:49:15.136Z,25.29
2023-05-02T07:50:15.067Z,25.28
2023-05-02T07:51:15.095Z,25.29
2023-05-02T07:52:15.169Z,25.30
2023-05-02T07:53:15.238Z,25.30
2023-05-02T07:54:15.261Z,25.31
2023-05-02T07:55:15.397Z,25.32
2023-05-02T07:56:15.378Z,25.28
2023-05-02T07:57:15.491Z,25.29
2023-05-02T07:58:16.053Z,25.31
2023-05-02T07:59:15.568Z,25.32
2023-05-02T08:00:15.649Z,25.33
2023-05-02T08:01:16.116Z,25.34
2023-05-02T08:02:15.855Z,25.33
2023-05-02T08:03:15.865Z,25.33
2023-05-02T08:04:16.299Z,25.36
2023-05-02T08:05:16.104Z,25.38
2023-05-02T08:06:15.978Z,25.39
2023-05-02T08:07:16.154Z,25.39
2023-05-02T08:08:16.099Z,25.39
2023-05-02T08:09:16.077Z,25.40
2023-05-02T08:10:16.152Z,25.40
2023-05-02T08:11:16.197Z,25.42
2023-05-02T08:12:16.252Z,25.43
2023-05-02T08:13:16.321Z,25.46
2023-05-02T08:14:16.306Z,25.47
2023-05-02T08:15:16.380Z,25.49
2023-05-02T08:16:16.449Z,25.51
2023-05-02T08:17:16.469Z,25.52
2023-05-02T08:18:16.551Z,25.54
2023-05-02T08:19:16.552Z,25.55
2023-05-02T08:20:16.614Z,25.56
2023-05-02T08:21:16.605Z,25.58
2023-05-02T08:22:16.726Z,25.57
2023-05-02T08:23:17.144Z,25.57
2023-05-02T08:24:16.748Z,25.57
2023-05-02T08:25:16.764Z,25.60
2023-05-02T08:26:16.809Z,25.62
2023-05-02T08:27:16.806Z,25.61
2023-05-02T08:28:16.843Z,25.61
2023-05-02T08:29:17.647Z,25.56
2023-05-02T08:30:17.914Z,25.47
2023-05-02T08:31:17.022Z,25.26
2023-05-02T08:32:17.138Z,25.12
2023-05-02T08:33:17.116Z,25.03
2023-05-02T08:34:17.128Z,24.99
2023-05-02T08:35:17.076Z,24.95
2023-05-02T08:36:17.035Z,24.93
2023-05-02T08:37:17.124Z,24.90
2023-05-02T08:38:17.046Z,24.89
2023-05-02T08:39:17.092Z,24.87
2023-05-02T08:40:22.072Z,24.87
2023-05-02T08:41:20.144Z,24.88
2023-05-02T08:42:17.124Z,24.87
2023-05-02T08:43:17.119Z,24.92
2023-05-02T08:44:17.060Z,24.96
2023-05-02T08:45:17.046Z,25.01
2023-05-02T08:46:17.109Z,25.06
2023-05-02T08:47:17.174Z,25.12
2023-05-02T08:48:17.187Z,25.19
2023-05-02T08:49:17.027Z,25.25
2023-05-02T08:50:17.063Z,25.31
2023-05-02T08:51:17.035Z,25.37
2023-05-02T08:52:16.963Z,25.44
2023-05-02T08:53:17.136Z,25.52
2023-05-02T08:54:17.042Z,25.59
2023-05-02T08:55:17.005Z,25.66
2023-05-02T08:56:16.940Z,25.71
2023-05-02T08:57:16.963Z,25.80
2023-05-02T08:58:17.848Z,25.86
2023-05-02T08:59:16.980Z,25.93
2023-05-02T09:00:16.943Z,26.00
2023-05-02T09:01:16.945Z,26.04
2023-05-02T09:02:16.950Z,26.09
2023-05-02T09:03:16.946Z,26.14
2023-05-02T09:04:17.207Z,26.19
2023-05-02T09:05:16.893Z,26.24
2023-05-02T09:06:16.970Z,26.28
2023-05-02T09:07:16.862Z,26.32
2023-05-02T09:08:16.880Z,26.37
2023-05-02T09:09:18.442Z,26.42
2023-05-02T09:10:16.856Z,26.46
2023-05-02T09:11:16.915Z,26.48
2023-05-02T09:12:16.925Z,26.53
2023-05-02T09:13:16.834Z,26.56
2023-05-02T09:14:16.861Z,26.60
2023-05-02T09:15:19.861Z,26.62
2023-05-02T09:16:16.869Z,26.65
2023-05-02T09:17:17.147Z,26.70
2023-05-02T09:18:16.805Z,26.73
2023-05-02T09:19:16.786Z,26.76
2023-05-02T09:20:16.795Z,26.79
2023-05-02T09:21:19.758Z,26.81
2023-05-02T09:22:16.779Z,26.84
2023-05-02T09:23:16.799Z,26.87
2023-05-02T09:24:16.784Z,26.90
2023-05-02T09:25:16.802Z,26.94
2023-05-02T09:26:16.833Z,26.97
2023-05-02T09:27:16.809Z,26.99
2023-05-02T09:28:17.209Z,27.02
2023-05-02T09:29:16.752Z,27.05
2023-05-02T09:30:17.184Z,27.07
2023-05-02T09:31:22.933Z,27.10
2023-05-02T09:32:18.237Z,27.09
2023-05-02T09:33:17.554Z,27.04
2023-05-02T09:34:17.152Z,26.94
2023-05-02T09:35:16.687Z,26.85
2023-05-02T09:36:16.670Z,26.78
2023-05-02T09:37:16.710Z,26.69
2023-05-02T09:38:16.677Z,26.65
2023-05-02T09:39:16.700Z,26.64
2023-05-02T09:40:17.188Z,26.65
2023-05-02T09:41:16.689Z,26.68
2023-05-02T09:42:16.639Z,26.71
2023-05-02T09:43:16.651Z,26.74
2023-05-02T09:44:17.711Z,26.79
2023-05-02T09:45:16.710Z,26.82
2023-05-02T09:46:16.786Z,26.87
2023-05-02T09:47:16.836Z,26.92
2023-05-02T09:48:17.197Z,26.97
2023-05-02T09:49:16.852Z,27.03
2023-05-02T09:50:16.877Z,27.08
2023-05-02T09:51:16.940Z,27.11
2023-05-02T09:52:16.939Z,27.14
2023-05-02T09:53:16.910Z,27.18
2023-05-02T09:54:16.906Z,27.22
2023-05-02T09:55:16.934Z,27.26
2023-05-02T09:56:16.931Z,27.29
2023-05-02T09:57:16.947Z,27.32
2023-05-02T09:58:16.933Z,27.36
2023-05-02T09:59:17.053Z,27.38
2023-05-02T10:00:16.955Z,27.42
2023-05-02T10:01:17.048Z,27.44
2023-05-02T10:02:16.923Z,27.43
2023-05-02T10:03:16.984Z,27.44
2023-05-02T10:04:16.992Z,27.45
2023-05-02T10:05:16.952Z,27.45
2023-05-02T10:06:16.974Z,27.45
2023-05-02T10:07:16.954Z,27.47
2023-05-02T10:08:16.984Z,27.49
2023-05-02T10:09:20.600Z,27.51
2023-05-02T10:10:17.098Z,27.52
2023-05-02T10:11:17.002Z,27.55
2023-05-02T10:12:17.273Z,27.57
2023-05-02T10:13:17.006Z,27.59
2023-05-02T10:14:17.026Z,27.63
2023-05-02T10:15:16.985Z,27.67
2023-05-02T10:16:16.973Z,27.68
2023-05-02T10:17:16.971Z,27.70
2023-05-02T10:18:17.048Z,27.73
2023-05-02T10:19:16.945Z,27.75
2023-05-02T10:20:16.989Z,27.76
2023-05-02T10:21:16.906Z,27.76
2023-05-02T10:22:16.918Z,27.78
2023-05-02T10:23:16.932Z,27.81
2023-05-02T10:24:16.940Z,27.83
2023-05-02T10:25:16.919Z,27.83
2023-05-02T10:26:16.988Z,27.84
2023-05-02T10:27:17.240Z,27.85
2023-05-02T10:28:17.025Z,27.86
2023-05-02T10:29:17.107Z,27.84
2023-05-02T10:30:17.159Z,27.84
2023-05-02T10:31:17.215Z,27.78
2023-05-02T10:32:17.279Z,27.75
2023-05-02T10:33:17.294Z,27.69
2023-05-02T10:34:17.272Z,27.62
2023-05-02T10:35:17.306Z,27.56
2023-05-02T10:36:17.308Z,27.48
2023-05-02T10:37:17.294Z,27.43
2023-05-02T10:38:17.280Z,27.40
2023-05-02T10:39:17.344Z,27.38
2023-05-02T10:40:17.344Z,27.37
2023-05-02T10:41:17.301Z,27.38
2023-05-02T10:42:17.308Z,27.39
2023-05-02T10:43:17.300Z,27.40
2023-05-02T10:44:17.316Z,27.43
2023-05-02T10:45:17.331Z,27.46
2023-05-02T10:46:17.364Z,27.49
2023-05-02T10:47:17.380Z,27.52
2023-05-02T10:48:17.466Z,27.57
2023-05-02T10:49:17.503Z,27.60
2023-05-02T10:50:17.566Z,27.62
2023-05-02T10:51:17.616Z,27.64
2023-05-02T10:52:17.701Z,27.67
2023-05-02T10:53:17.726Z,27.69
2023-05-02T10:54:17.800Z,27.71
2023-05-02T10:55:17.894Z,27.72
2023-05-02T10:56:17.856Z,27.73
2023-05-02T10:57:17.931Z,27.76
2023-05-02T10:58:18.029Z,27.78
2023-05-02T10:59:18.063Z,27.79
2023-05-02T11:00:18.147Z,27.81
2023-05-02T11:01:18.163Z,27.82
2023-05-02T11:02:18.209Z,27.83
2023-05-02T11:03:18.333Z,27.83
2023-05-02T11:04:18.301Z,27.85
2023-05-02T11:05:18.333Z,27.85
2023-05-02T11:06:18.412Z,27.86
2023-05-02T11:07:18.423Z,27.86
2023-05-02T11:08:20.475Z,27.87
2023-05-02T11:09:18.435Z,27.86
2023-05-02T11:10:18.520Z,27.88
2023-05-02T11:11:18.431Z,27.90
2023-05-02T11:12:18.457Z,27.90
2023-05-02T11:13:18.791Z,27.91
2023-05-02T11:14:18.592Z,27.91
2023-05-02T11:15:18.401Z,27.92
2023-05-02T11:16:18.815Z,27.94
2023-05-02T11:17:18.495Z,27.94
2023-05-02T11:18:18.449Z,27.94
2023-05-02T11:19:18.405Z,27.97
2023-05-02T11:20:18.382Z,27.97
2023-05-02T11:21:18.804Z,27.97
2023-05-02T11:22:18.352Z,27.95
2023-05-02T11:23:18.704Z,27.92
2023-05-02T11:24:19.199Z,27.87
2023-05-02T11:25:18.712Z,27.81
2023-05-02T11:26:18.373Z,27.75
2023-05-02T11:27:18.330Z,27.70
2023-05-02T11:28:18.315Z,27.63
2023-05-02T11:29:18.329Z,27.57
2023-05-02T11:30:18.335Z,27.54
2023-05-02T11:31:18.347Z,27.50
2023-05-02T11:32:18.435Z,27.45
2023-05-02T11:33:18.349Z,27.41
2023-05-02T11:34:18.316Z,27.37
2023-05-02T11:35:18.305Z,27.34
2023-05-02T11:36:18.303Z,27.32
2023-05-02T11:37:18.294Z,27.29
2023-05-02T11:38:18.295Z,27.28
2023-05-02T11:39:18.292Z,27.25
2023-05-02T11:40:18.268Z,27.22
2023-05-02T11:41:18.297Z,27.18
2023-05-02T11:42:18.307Z,27.17
2023-05-02T11:43:18.364Z,27.14
2023-05-02T11:44:18.373Z,27.12
2023-05-02T11:45:18.443Z,27.10
2023-05-02T11:46:18.422Z,27.08
2023-05-02T11:47:18.449Z,27.07
2023-05-02T11:48:18.499Z,27.05
2023-05-02T11:49:18.571Z,27.03
2023-05-02T11:50:18.590Z,27.01
2023-05-02T11:51:18.579Z,27.00
2023-05-02T11:52:18.623Z,26.99
2023-05-02T11:53:18.628Z,26.97
2023-05-02T11:54:18.675Z,26.96
2023-05-02T11:55:18.714Z,26.93
2023-05-02T11:56:18.758Z,26.91
2023-05-02T11:57:18.786Z,26.89
2023-05-02T11:58:18.793Z,26.89
2023-05-02T11:59:18.882Z,26.90
2023-05-02T12:00:18.955Z,26.86
2023-05-02T12:01:18.965Z,26.86
2023-05-02T12:02:19.034Z,26.85
2023-05-02T12:03:19.181Z,26.84
2023-05-02T12:04:19.078Z,26.83
2023-05-02T12:05:19.142Z,26.83
2023-05-02T12:06:19.861Z,26.83
2023-05-02T12:07:19.202Z,26.82
2023-05-02T12:08:19.216Z,26.81
2023-05-02T12:09:19.359Z,26.80
2023-05-02T12:10:19.326Z,26.80
2023-05-02T12:11:19.377Z,26.79
2023-05-02T12:12:19.449Z,26.78
2023-05-02T12:13:19.442Z,26.77
2023-05-02T12:14:19.495Z,26.76
2023-05-02T12:15:19.578Z,26.74
2023-05-02T12:16:19.748Z,26.73
2023-05-02T12:17:19.696Z,26.71
2023-05-02T12:18:22.057Z,26.70
2023-05-02T12:19:19.745Z,26.69
2023-05-02T12:20:19.871Z,26.68
2023-05-02T12:21:19.913Z,26.67
2023-05-02T12:22:19.972Z,26.67
2023-05-02T12:23:19.981Z,26.65
2023-05-02T12:24:20.109Z,26.63
2023-05-02T12:25:20.117Z,26.63
2023-05-02T12:26:20.214Z,26.63
2023-05-02T12:27:20.280Z,26.63
2023-05-02T12:28:20.302Z,26.62
2023-05-02T12:29:20.378Z,26.62
2023-05-02T12:30:20.422Z,26.60
2023-05-02T12:31:20.517Z,26.61
2023-05-02T12:32:20.538Z,26.60
2023-05-02T12:33:20.567Z,26.59
2023-05-02T12:34:20.651Z,26.58
2023-05-02T12:35:20.730Z,26.59
2023-05-02T12:36:20.769Z,26.58
2023-05-02T12:37:20.780Z,26.58
2023-05-02T12:38:20.867Z,26.56
2023-05-02T12:39:20.947Z,26.56
2023-05-02T12:40:20.993Z,26.54
2023-05-02T12:41:21.073Z,26.53
2023-05-02T12:42:21.123Z,26.52
2023-05-02T12:43:21.183Z,26.51
2023-05-02T12:44:21.228Z,26.49
2023-05-02T12:45:21.248Z,26.48
2023-05-02T12:46:21.365Z,26.46
2023-05-02T12:47:21.529Z,26.44
2023-05-02T12:48:21.461Z,26.43
2023-05-02T12:49:21.540Z,26.42
2023-05-02T12:50:21.579Z,26.40
2023-05-02T12:51:21.593Z,26.39
2023-05-02T12:52:21.731Z,26.37
2023-05-02T12:53:21.694Z,26.37